createdAt,value
2022-09-26T00:01:26.867Z,1.00
2022-09-26T00:03:56.468Z,2.00
2022-09-26T00:06:25.475Z,4.47
2022-09-26T00:08:53.998Z,5.30
2022-09-26T00:11:23.641Z,3.17
2022-09-26T00:13:53.851Z,0.70
2022-09-26T00:16:24.231Z,1.07
2022-09-26T00:18:53.281Z,1.20
2022-09-26T00:21:23.329Z,1.93
2022-09-26T00:23:52.039Z,1.43
2022-09-26T00:26:21.119Z,1.67
2022-09-26T00:28:50.614Z,4.20
2022-09-26T00:31:20.046Z,1.57
2022-09-26T00:33:50.196Z,6.40
2022-09-26T00:36:18.583Z,4.70
2022-09-26T00:38:46.909Z,2.03
2022-09-26T00:41:16.186Z,3.33
2022-09-26T00:43:45.692Z,3.17
2022-09-26T00:46:25.087Z,1.80
2022-09-26T00:48:57.621Z,9.80
2022-09-26T00:51:25.972Z,4.73
2022-09-26T00:53:55.794Z,3.83
2022-09-26T00:56:26.188Z,0.83
2022-09-26T00:58:57.858Z,7.13
2022-09-26T01:01:26.441Z,12.53
2022-09-26T01:03:56.201Z,4.80
2022-09-26T01:06:27.628Z,3.03
2022-09-26T01:08:58.766Z,1.30
2022-09-26T01:11:27.211Z,11.73
2022-09-26T01:13:55.782Z,2.73
2022-09-26T01:16:24.249Z,1.80
2022-09-26T01:18:54.639Z,2.27
2022-09-26T01:21:41.616Z,12.17
2022-09-26T01:24:33.904Z,2.37
2022-09-26T01:27:10.123Z,4.07
2022-09-26T01:30:02.925Z,1.87
2022-09-26T01:32:52.764Z,0.73
2022-09-26T01:35:30.228Z,1.00
2022-09-26T01:38:03.678Z,1.10
2022-09-26T01:40:33.669Z,0.57
2022-09-26T01:43:07.097Z,0.87
2022-09-26T01:45:39.648Z,1.10
2022-09-26T01:48:13.499Z,1.20
2022-09-26T01:50:45.213Z,4.90
2022-09-26T01:53:16.698Z,0.60
2022-09-26T01:55:46.963Z,0.83
2022-09-26T01:58:18.054Z,1.07
2022-09-26T02:00:48.969Z,0.70
2022-09-26T02:03:20.683Z,3.50
2022-09-26T02:05:51.268Z,3.07
2022-09-26T02:08:24.426Z,1.90
2022-09-26T02:10:59.512Z,3.10
2022-09-26T02:13:31.075Z,1.50
2022-09-26T02:16:02.933Z,7.93
2022-09-26T02:18:34.125Z,1.00
2022-09-26T02:21:03.871Z,1.57
2022-09-26T02:23:32.587Z,1.23
2022-09-26T02:26:01.290Z,1.60
2022-09-26T02:28:29.690Z,1.30
2022-09-26T02:31:01.126Z,1.87
2022-09-26T02:33:29.729Z,2.03
2022-09-26T02:35:59.633Z,3.17
2022-09-26T02:38:29.183Z,7.30
2022-09-26T02:41:00.146Z,2.03
2022-09-26T02:43:45.555Z,2.53
2022-09-26T02:46:30.427Z,1.70
2022-09-26T02:49:09.492Z,1.37
2022-09-26T02:52:03.151Z,3.77
2022-09-26T02:54:35.151Z,2.23
2022-09-26T02:57:09.083Z,0.90
2022-09-26T02:59:40.567Z,6.03
2022-09-26T03:02:13.452Z,6.03
2022-09-26T03:04:46.163Z,8.70
2022-09-26T03:07:18.471Z,2.93
2022-09-26T03:09:46.990Z,1.60
2022-09-26T03:12:16.709Z,1.70
2022-09-26T03:14:46.268Z,5.43
2022-09-26T03:17:16.593Z,1.23
2022-09-26T03:19:47.174Z,1.10
2022-09-26T03:22:18.007Z,2.07
2022-09-26T03:24:46.802Z,1.33
2022-09-26T03:27:15.961Z,5.00
2022-09-26T03:29:44.488Z,1.33
2022-09-26T03:32:12.959Z,6.20
2022-09-26T03:34:41.367Z,2.93
2022-09-26T03:37:10.025Z,1.10
2022-09-26T03:39:39.807Z,1.73
2022-09-26T03:42:08.237Z,3.73
2022-09-26T03:44:36.593Z,2.43
2022-09-26T03:47:05.299Z,1.63
2022-09-26T03:49:33.725Z,0.97
2022-09-26T03:52:02.223Z,0.73
2022-09-26T03:54:30.665Z,3.73
2022-09-26T03:57:00.452Z,1.10
2022-09-26T03:59:28.847Z,2.97
2022-09-26T04:01:57.338Z,4.03
2022-09-26T04:04:25.927Z,5.47
2022-09-26T04:06:56.139Z,4.70
2022-09-26T04:09:24.635Z,3.43
2022-09-26T04:11:53.163Z,3.87
2022-09-26T04:14:22.938Z,2.83
2022-09-26T04:16:51.395Z,7.87
2022-09-26T04:19:19.902Z,4.53
2022-09-26T04:21:48.601Z,8.53
2022-09-26T04:24:17.542Z,5.67
2022-09-26T04:26:46.485Z,2.20
2022-09-26T04:29:16.172Z,4.43
2022-09-26T04:31:46.336Z,4.67
2022-09-26T04:34:15.991Z,6.67
2022-09-26T04:36:44.305Z,3.87
2022-09-26T04:39:12.837Z,6.37
2022-09-26T04:41:41.324Z,3.67
2022-09-26T04:44:09.642Z,5.93
2022-09-26T04:46:38.179Z,3.03
2022-09-26T04:49:07.960Z,7.23
2022-09-26T04:51:37.080Z,4.67
2022-09-26T04:54:05.574Z,4.07
2022-09-26T04:56:33.934Z,6.17
2022-09-26T04:59:02.399Z,5.37
2022-09-26T05:01:30.926Z,5.17
2022-09-26T05:03:59.392Z,8.60
2022-09-26T05:06:30.253Z,3.83
2022-09-26T05:08:58.706Z,4.80
2022-09-26T05:11:26.991Z,9.27
2022-09-26T05:13:55.421Z,6.00
2022-09-26T05:16:24.087Z,6.33
2022-09-26T05:18:52.778Z,10.10
2022-09-26T05:21:23.607Z,2.43
2022-09-26T05:24:11.186Z,4.77
2022-09-26T05:26:43.465Z,3.17
2022-09-26T05:29:12.452Z,6.50
2022-09-26T05:31:43.739Z,7.20
2022-09-26T05:34:18.484Z,7.00
2022-09-26T05:36:48.097Z,4.07
2022-09-26T05:39:39.003Z,6.27
2022-09-26T05:42:10.545Z,5.00
2022-09-26T05:44:39.951Z,6.10
2022-09-26T05:47:08.944Z,5.30
2022-09-26T05:49:37.534Z,7.10
2022-09-26T05:52:06.163Z,8.73
2022-09-26T05:54:35.990Z,7.43
2022-09-26T05:57:04.494Z,3.90
2022-09-26T05:59:32.878Z,3.70
2022-09-26T06:02:01.371Z,3.73
2022-09-26T06:04:30.099Z,6.60
2022-09-26T06:06:58.502Z,2.97
2022-09-26T06:09:26.906Z,6.30
2022-09-26T06:11:56.763Z,7.37
2022-09-26T06:14:26.387Z,4.97
2022-09-26T06:16:54.941Z,3.97
2022-09-26T06:19:23.637Z,7.57
2022-09-26T06:21:52.597Z,5.83
2022-09-26T06:24:20.945Z,6.43
2022-09-26T06:26:49.512Z,8.17
2022-09-26T06:29:19.769Z,4.10
2022-09-26T06:31:48.224Z,6.60
2022-09-26T06:34:16.690Z,3.97
2022-09-26T06:36:46.857Z,2.00
2022-09-26T06:39:15.955Z,6.23
2022-09-26T06:41:44.654Z,6.57
2022-09-26T06:44:13.072Z,6.13
2022-09-26T06:46:42.833Z,4.67
2022-09-26T06:49:11.210Z,4.97
2022-09-26T06:51:39.707Z,7.83
2022-09-26T06:54:08.124Z,6.67
2022-09-26T06:56:36.521Z,6.27
2022-09-26T06:59:07.061Z,9.33
2022-09-26T07:01:35.614Z,7.17
2022-09-26T07:04:05.746Z,4.83
2022-09-26T07:06:34.123Z,4.37
2022-09-26T07:09:04.837Z,7.97
2022-09-26T07:11:56.365Z,5.13
2022-09-26T07:14:25.667Z,4.07
2022-09-26T07:16:57.540Z,7.97
2022-09-26T07:19:28.640Z,5.20
2022-09-26T07:21:57.041Z,6.47
2022-09-26T07:24:27.289Z,8.47
2022-09-26T07:26:55.842Z,6.63
2022-09-26T07:29:24.356Z,7.80
2022-09-26T07:31:52.923Z,4.77
2022-09-26T07:34:25.126Z,7.67
2022-09-26T07:36:57.511Z,9.20
2022-09-26T07:39:26.523Z,2.10
2022-09-26T07:41:55.047Z,3.50
2022-09-26T07:48:23.531Z,6.17
2022-09-26T07:50:54.208Z,8.17
2022-09-26T07:53:28.929Z,8.73
2022-09-26T07:56:06.941Z,7.07
2022-09-26T07:58:36.333Z,3.77
2022-09-26T08:01:05.089Z,7.67
2022-09-26T08:03:37.847Z,8.50
2022-09-26T08:06:28.585Z,9.47
2022-09-26T08:09:09.228Z,9.60
2022-09-26T08:11:38.637Z,9.97
2022-09-26T08:14:07.247Z,10.73
2022-09-26T08:16:39.723Z,9.50
2022-09-26T08:19:08.678Z,8.10
2022-09-26T08:21:37.678Z,7.63
2022-09-26T08:24:06.135Z,5.13
2022-09-26T08:26:44.167Z,6.43
2022-09-26T08:29:13.954Z,6.33
2022-09-26T08:31:42.948Z,7.87
2022-09-26T08:34:14.479Z,6.77
2022-09-26T08:36:43.092Z,9.60
2022-09-26T08:39:12.156Z,8.67
2022-09-26T08:42:03.017Z,9.73
2022-09-26T08:44:39.502Z,8.00
2022-09-26T08:47:16.825Z,9.37
2022-09-26T08:49:56.427Z,8.90
2022-09-26T08:52:30.160Z,8.70
2022-09-26T08:55:00.099Z,8.53
2022-09-26T08:57:35.733Z,9.63
2022-09-26T09:00:08.677Z,7.60
2022-09-26T09:02:40.991Z,7.30
2022-09-26T09:05:13.269Z,8.90
2022-09-26T09:07:41.752Z,9.77
2022-09-26T09:10:16.705Z,7.93
2022-09-26T09:12:49.914Z,9.67
2022-09-26T09:15:30.831Z,6.23
2022-09-26T09:18:05.718Z,7.60
2022-09-26T09:20:41.491Z,2.40
2022-09-26T09:23:18.994Z,6.80
2022-09-26T09:25:49.331Z,3.33
2022-09-26T09:28:28.082Z,1.40
2022-09-26T09:31:00.822Z,5.60
2022-09-26T09:33:33.166Z,5.00
2022-09-26T09:36:04.953Z,3.90
2022-09-26T09:38:34.395Z,4.53
2022-09-26T09:41:07.857Z,5.63
2022-09-26T09:43:45.128Z,5.27
2022-09-26T09:46:18.959Z,5.43
2022-09-26T09:48:49.388Z,5.33
2022-09-26T09:51:25.051Z,4.03
2022-09-26T09:54:00.190Z,6.77
2022-09-26T09:56:33.272Z,3.13
2022-09-26T09:59:10.601Z,3.47
2022-09-26T10:01:44.673Z,1.50
2022-09-26T10:04:20.818Z,3.60
2022-09-26T10:06:49.832Z,2.87
2022-09-26T10:09:35.558Z,2.90
2022-09-26T10:12:10.862Z,5.03
2022-09-26T10:14:44.477Z,3.23
2022-09-26T10:17:20.453Z,1.67
2022-09-26T10:19:49.211Z,0.73
2022-09-26T10:22:26.012Z,0.87
2022-09-26T10:25:02.289Z,4.90
2022-09-26T10:27:37.026Z,4.03
2022-09-26T10:30:25.824Z,1.03
2022-09-26T10:32:57.105Z,3.00
2022-09-26T10:35:29.797Z,0.63
2022-09-26T10:38:04.819Z,0.83
2022-09-26T10:40:49.883Z,3.10
2022-09-26T10:43:22.444Z,1.80
2022-09-26T10:45:53.523Z,3.70
2022-09-26T10:48:24.719Z,2.93
2022-09-26T10:50:55.688Z,0.83
2022-09-26T10:53:24.661Z,10.17
2022-09-26T10:55:57.696Z,1.57
2022-09-26T10:58:40.236Z,2.23
2022-09-26T11:01:09.052Z,5.40
2022-09-26T11:03:43.027Z,2.30
2022-09-26T11:06:24.112Z,7.03
2022-09-26T11:08:54.069Z,0.77
2022-09-26T11:11:38.508Z,6.90
2022-09-26T11:14:12.653Z,4.17
2022-09-26T11:16:52.192Z,1.13
2022-09-26T11:19:28.133Z,2.53
2022-09-26T11:22:03.253Z,5.07
2022-09-26T11:24:37.406Z,3.40
2022-09-26T11:27:08.830Z,0.50
2022-09-26T11:29:45.273Z,1.07
2022-09-26T11:32:15.554Z,2.73
2022-09-26T11:34:45.342Z,6.33
2022-09-26T11:37:30.735Z,2.87
2022-09-26T11:40:09.836Z,1.07
2022-09-26T11:42:44.782Z,2.53
2022-09-26T11:45:17.622Z,3.30
2022-09-26T11:48:07.630Z,0.50
2022-09-26T11:50:45.218Z,3.13
2022-09-26T11:53:32.424Z,4.00
2022-09-26T11:56:09.160Z,0.90
2022-09-26T11:58:43.548Z,10.57
2022-09-26T12:01:19.833Z,5.37
2022-09-26T12:04:07.693Z,0.90
2022-09-26T12:06:41.824Z,3.50
2022-09-26T12:09:22.617Z,5.43
2022-09-26T12:11:55.965Z,2.93
2022-09-26T12:14:36.961Z,1.80
2022-09-26T12:17:07.773Z,3.50
2022-09-26T12:19:38.885Z,4.80
2022-09-26T12:22:32.397Z,10.73
2022-09-26T12:25:07.903Z,2.77
2022-09-26T12:27:38.672Z,3.70
2022-09-26T12:30:08.467Z,1.00
2022-09-26T12:32:49.760Z,6.43
2022-09-26T12:35:21.829Z,1.60
2022-09-26T12:38:08.236Z,8.80
2022-09-26T12:40:41.561Z,1.10
2022-09-26T12:43:19.199Z,2.20
2022-09-26T12:46:02.470Z,5.33
2022-09-26T12:48:36.468Z,4.03
2022-09-26T12:51:20.045Z,6.23
2022-09-26T12:53:59.619Z,4.50
2022-09-26T12:56:37.942Z,2.43
2022-09-26T12:59:12.343Z,2.70
2022-09-26T13:01:58.195Z,1.47
2022-09-26T13:04:36.900Z,7.43
2022-09-26T13:07:20.026Z,5.63
2022-09-26T13:09:56.695Z,5.90
2022-09-26T13:12:38.903Z,6.03
2022-09-26T13:15:18.877Z,1.27
2022-09-26T13:17:49.654Z,7.93
2022-09-26T13:20:20.665Z,4.80
2022-09-26T13:22:51.033Z,1.20
2022-09-26T13:25:21.522Z,11.87
2022-09-26T13:27:56.292Z,5.50
2022-09-26T13:30:26.547Z,1.57
2022-09-26T13:33:00.724Z,4.30
2022-09-26T13:35:31.699Z,7.50
2022-09-26T13:38:10.240Z,1.83
2022-09-26T13:40:41.571Z,7.73
2022-09-26T13:43:20.422Z,3.53
2022-09-26T13:46:00.526Z,11.50
2022-09-26T13:48:38.488Z,14.27
2022-09-26T13:51:13.942Z,4.23
2022-09-26T13:53:44.879Z,0.30
2022-09-26T13:56:32.065Z,8.07
2022-09-26T13:59:26.256Z,1.03
2022-09-26T14:02:14.279Z,7.53
2022-09-26T14:04:42.968Z,4.20
2022-09-26T14:07:36.407Z,6.13
2022-09-26T14:10:13.364Z,4.50
2022-09-26T14:12:56.330Z,4.87
2022-09-26T14:15:28.379Z,2.03
2022-09-26T14:18:05.543Z,3.23
2022-09-26T14:20:35.784Z,5.73
2022-09-26T14:23:04.429Z,5.17
2022-09-26T14:25:51.811Z,2.57
2022-09-26T14:28:25.377Z,11.23
2022-09-26T14:31:22.025Z,13.10
2022-09-26T14:33:51.228Z,3.90
2022-09-26T14:36:26.418Z,2.10
2022-09-26T14:38:55.697Z,0.53
2022-09-26T14:41:27.943Z,7.47
2022-09-26T14:44:00.766Z,7.90
2022-09-26T14:46:33.236Z,0.30
2022-09-26T14:49:04.444Z,0.40
2022-09-26T14:51:33.857Z,0.30
2022-09-26T14:54:03.673Z,0.40
2022-09-26T14:56:37.180Z,0.40
2022-09-26T14:59:24.191Z,0.40
2022-09-26T15:01:54.966Z,0.40
2022-09-26T15:04:25.145Z,0.40
2022-09-26T15:06:54.354Z,0.40
2022-09-26T15:09:24.564Z,0.40
2022-09-26T15:11:56.368Z,0.40
2022-09-26T15:14:30.119Z,0.40
2022-09-26T15:17:01.042Z,0.40
2022-09-26T15:19:33.403Z,0.40
2022-09-26T15:22:02.673Z,0.40
2022-09-26T15:24:33.298Z,0.40
2022-09-26T15:27:03.778Z,0.40
2022-09-26T15:29:32.132Z,0.40
2022-09-26T15:32:02.428Z,0.40
2022-09-26T15:34:34.185Z,0.40
2022-09-26T15:37:04.301Z,0.40
2022-09-26T15:39:41.826Z,0.40
2022-09-26T15:42:49.591Z,0.40
2022-09-26T15:45:27.200Z,0.40
2022-09-26T15:47:57.736Z,0.40
2022-09-26T15:50:28.558Z,0.40
2022-09-26T15:52:59.199Z,0.40
2022-09-26T15:55:29.416Z,0.30
2022-09-26T15:57:59.152Z,0.30
2022-09-26T16:00:28.152Z,0.30
2022-09-26T16:02:58.717Z,0.40
2022-09-26T16:05:28.649Z,0.40
2022-09-26T16:07:58.661Z,0.40
2022-09-26T16:10:29.630Z,0.40
2022-09-26T16:13:00.418Z,0.40
2022-09-26T16:15:29.653Z,0.40
2022-09-26T16:18:00.239Z,0.40
2022-09-26T16:20:30.033Z,0.43
2022-09-26T16:23:04.150Z,0.40
2022-09-26T16:25:35.162Z,0.40
2022-09-26T16:28:23.689Z,0.40
2022-09-26T16:31:03.672Z,0.40
2022-09-26T16:33:34.475Z,0.40
2022-09-26T16:36:11.833Z,0.40
2022-09-26T16:38:40.304Z,0.40
2022-09-26T16:41:09.592Z,0.40
2022-09-26T16:43:39.743Z,0.40
2022-09-26T16:46:09.831Z,0.43
2022-09-26T16:48:41.031Z,0.40
2022-09-26T16:51:14.607Z,0.50
2022-09-26T16:53:45.429Z,0.40
2022-09-26T16:56:14.637Z,0.40
2022-09-26T16:58:46.409Z,0.40
2022-09-26T17:01:32.326Z,0.40
2022-09-26T17:04:02.062Z,0.40
2022-09-26T17:06:30.891Z,0.43
2022-09-26T17:09:03.488Z,0.43
2022-09-26T17:11:32.070Z,0.47
2022-09-26T17:14:00.439Z,0.50
2022-09-26T17:16:29.708Z,0.50
2022-09-26T17:18:58.233Z,0.40
2022-09-26T17:21:28.522Z,0.40
2022-09-26T17:23:57.746Z,0.40
2022-09-26T17:26:26.321Z,0.40
2022-09-26T17:28:58.024Z,0.40
2022-09-26T17:31:27.076Z,0.40
2022-09-26T17:33:55.537Z,0.40
2022-09-26T17:36:25.242Z,0.40
2022-09-26T17:38:55.505Z,0.50
2022-09-26T17:41:25.267Z,0.40
2022-09-26T17:43:58.773Z,0.40
2022-09-26T17:46:27.276Z,0.40
2022-09-26T17:48:56.239Z,0.40
2022-09-26T17:51:25.324Z,0.40
2022-09-26T17:53:57.455Z,0.40
2022-09-26T17:56:26.564Z,0.40
2022-09-26T17:58:57.020Z,0.40
2022-09-26T18:01:26.932Z,0.40
2022-09-26T18:03:57.436Z,0.40
2022-09-26T18:06:27.386Z,0.40
2022-09-26T18:08:59.698Z,0.40
2022-09-26T18:11:28.260Z,0.40
2022-09-26T18:13:56.940Z,0.40
2022-09-26T18:16:25.791Z,0.40
2022-09-26T18:18:54.244Z,0.40
2022-09-26T18:21:24.166Z,0.40
2022-09-26T18:23:53.901Z,0.40
2022-09-26T18:26:27.799Z,0.40
2022-09-26T18:28:56.872Z,0.40
2022-09-26T18:31:28.186Z,0.43
2022-09-26T18:33:57.055Z,0.50
2022-09-26T18:36:26.162Z,0.40
2022-09-26T18:38:54.756Z,0.50
2022-09-26T18:41:26.469Z,0.50
2022-09-26T18:43:57.253Z,0.50
2022-09-26T18:46:25.640Z,0.40
2022-09-26T18:48:58.150Z,0.50
2022-09-26T18:51:27.059Z,0.50
2022-09-26T18:53:55.431Z,0.50
2022-09-26T18:56:37.616Z,0.50
2022-09-26T18:59:10.230Z,0.50
2022-09-26T19:01:41.355Z,0.50
2022-09-26T19:04:14.284Z,0.43
2022-09-26T19:06:43.529Z,0.50
2022-09-26T19:09:13.886Z,0.40
2022-09-26T19:11:42.181Z,0.50
2022-09-26T19:14:14.870Z,0.50
2022-09-26T19:16:43.449Z,0.50
2022-09-26T19:19:11.889Z,0.50
2022-09-26T19:21:41.605Z,0.50
2022-09-26T19:24:20.013Z,0.50
2022-09-26T19:26:50.136Z,0.50
2022-09-26T19:29:23.017Z,0.50
2022-09-26T19:31:51.473Z,0.50
2022-09-26T19:34:20.191Z,0.50
2022-09-26T19:36:48.506Z,0.47
2022-09-26T19:39:17.457Z,0.50
2022-09-26T19:41:45.800Z,0.50
2022-09-26T19:44:14.178Z,0.40
2022-09-26T19:46:44.467Z,0.40
2022-09-26T19:49:16.304Z,0.50
2022-09-26T19:51:44.815Z,0.50
2022-09-26T19:54:16.820Z,0.40
2022-09-26T19:56:45.682Z,0.50
2022-09-26T19:59:13.982Z,0.50
2022-09-26T20:01:45.988Z,0.50
2022-09-26T20:04:15.553Z,0.40
2022-09-26T20:06:43.973Z,0.50
2022-09-26T20:09:15.708Z,0.50
2022-09-26T20:11:44.327Z,0.50
2022-09-26T20:14:24.881Z,0.50
2022-09-26T20:16:55.772Z,0.50
2022-09-26T20:19:33.225Z,0.50
2022-09-26T20:22:03.280Z,0.50
2022-09-26T20:24:33.316Z,0.50
2022-09-26T20:27:02.590Z,0.50
2022-09-26T20:29:51.055Z,0.50
2022-09-26T20:32:20.854Z,0.50
2022-09-26T20:34:49.471Z,0.50
2022-09-26T20:37:19.778Z,0.50
2022-09-26T20:39:48.103Z,0.50
2022-09-26T20:42:18.574Z,0.60
2022-09-26T20:44:48.049Z,0.60
2022-09-26T20:47:19.552Z,0.50
2022-09-26T20:49:52.031Z,0.50
2022-09-26T20:52:21.506Z,0.50
2022-09-26T20:54:50.050Z,0.50
2022-09-26T20:57:19.639Z,0.50
2022-09-26T20:59:47.966Z,0.50
2022-09-26T21:02:34.244Z,0.50
2022-09-26T21:05:04.081Z,0.50
2022-09-26T21:07:33.149Z,0.50
2022-09-26T21:10:01.443Z,0.50
2022-09-26T21:12:29.830Z,0.50
2022-09-26T21:14:58.148Z,0.50
2022-09-26T21:17:28.227Z,0.50
2022-09-26T21:19:56.895Z,0.50
2022-09-26T21:22:28.166Z,0.50
2022-09-26T21:24:56.532Z,0.50
2022-09-26T21:27:24.858Z,0.50
2022-09-26T21:29:53.196Z,0.50
2022-09-26T21:32:23.027Z,0.50
2022-09-26T21:34:55.949Z,0.50
2022-09-26T21:37:24.529Z,0.50
2022-09-26T21:39:54.320Z,0.50
2022-09-26T21:42:22.813Z,0.50
2022-09-26T21:44:54.566Z,0.50
2022-09-26T21:47:24.565Z,0.50
2022-09-26T21:49:53.484Z,0.50
2022-09-26T21:52:23.639Z,0.50
2022-09-26T21:54:52.597Z,0.50
2022-09-26T21:57:23.494Z,0.50
2022-09-26T21:59:52.725Z,0.50
2022-09-26T22:02:21.670Z,0.50
2022-09-26T22:04:50.772Z,0.50
2022-09-26T22:07:19.101Z,0.50
2022-09-26T22:09:47.583Z,0.50
2022-09-26T22:12:15.965Z,0.50
2022-09-26T22:14:45.675Z,0.50
2022-09-26T22:17:14.140Z,0.50
2022-09-26T22:19:42.587Z,0.50
2022-09-26T22:22:10.926Z,0.50
2022-09-26T22:24:39.311Z,0.40
2022-09-26T22:27:07.680Z,0.50
2022-09-26T22:29:35.973Z,0.50
2022-09-26T22:32:06.266Z,0.50
2022-09-26T22:34:34.552Z,0.50
2022-09-26T22:37:02.911Z,0.43
2022-09-26T22:39:31.187Z,0.50
2022-09-26T22:41:59.468Z,0.50
2022-09-26T22:44:27.804Z,0.50
2022-09-26T22:46:56.143Z,0.50
2022-09-26T22:49:28.697Z,0.50
2022-09-26T22:51:57.070Z,0.50
2022-09-26T22:54:25.421Z,0.50
2022-09-26T22:56:54.340Z,0.50
2022-09-26T22:59:22.878Z,0.50
2022-09-26T23:01:51.694Z,0.50
2022-09-26T23:04:20.113Z,0.40
2022-09-26T23:06:49.811Z,0.50
2022-09-26T23:09:18.114Z,0.50
2022-09-26T23:11:47.113Z,0.50
2022-09-26T23:14:15.468Z,0.50
2022-09-26T23:16:43.862Z,0.47
2022-09-26T23:19:12.421Z,0.50
2022-09-26T23:21:40.779Z,0.50
2022-09-26T23:24:10.724Z,0.50
2022-09-26T23:26:39.077Z,0.50
2022-09-26T23:29:07.391Z,0.50
2022-09-26T23:31:35.687Z,0.57
2022-09-26T23:34:04.032Z,0.50
2022-09-26T23:36:32.369Z,0.50
2022-09-26T23:39:00.729Z,0.50
2022-09-26T23:41:30.402Z,0.50
2022-09-26T23:43:58.807Z,0.40
2022-09-26T23:46:27.280Z,0.50
2022-09-26T23:48:55.823Z,0.50
2022-09-26T23:51:24.626Z,0.50
2022-09-26T23:53:53.014Z,0.40
2022-09-26T23:56:23.721Z,0.50
2022-09-26T23:58:53.487Z,0.50
